Time;durP1;ratioP1;P1;durP2;ratioP2;P2;SDS_P1;SDS_P2;PMS_P1;PMS_P2;Temp;Humidity;BMP_temperature;BMP_pressure;BME280_temperature;BME280_humidity;BME280_pressure;Samples;Min_cycle;Max_cycle;Signal;HPM_P1;HPM_P2
2023/11/12 00:01:10;;;;;;;2.28;2.08;;;3.30;99.90;;;;;;4986104;28;20231;-74
2023/11/12 00:03:37;;;;;;;2.15;1.60;;;3.30;99.90;;;;;;4985222;28;20690;-74
2023/11/12 00:06:05;;;;;;;1.73;1.50;;;3.40;99.90;;;;;;4991468;28;20243;-74
2023/11/12 00:08:32;;;;;;;1.55;1.35;;;3.40;99.90;;;;;;4990976;28;20206;-74
2023/11/12 00:11:00;;;;;;;1.60;1.30;;;3.50;99.90;;;;;;4991177;28;20246;-74
2023/11/12 00:13:27;;;;;;;2.65;1.40;;;3.50;99.90;;;;;;4988653;28;20207;-74
2023/11/12 04:32:10;;;;;;;1.10;1.00;;;2.00;99.90;;;;;;5345604;23;20238;-70
2023/11/12 04:34:37;;;;;;;1.10;1.00;;;2.00;99.90;;;;;;4989939;28;20204;-70
2023/11/12 04:37:04;;;;;;;1.23;1.13;;;1.90;99.90;;;;;;4993909;28;20218;-70
2023/11/12 04:39:30;;;;;;;2.13;1.65;;;1.90;99.90;;;;;;4994211;28;20206;-70
2023/11/12 04:41:57;;;;;;;1.67;1.48;;;1.90;99.90;;;;;;4993480;28;20234;-70
2023/11/12 04:44:25;;;;;;;7.18;1.25;;;1.90;99.90;;;;;;4993661;28;20210;-70
2023/11/12 04:46:52;;;;;;;1.20;1.10;;;1.90;99.90;;;;;;4993688;28;20224;-70
2023/11/12 04:49:20;;;;;;;1.10;0.88;;;1.80;99.90;;;;;;4993765;28;20199;-70
2023/11/12 04:51:46;;;;;;;1.92;1.27;;;1.80;99.90;;;;;;4993533;28;20227;-70
2023/11/12 04:54:13;;;;;;;1.05;0.95;;;1.80;99.90;;;;;;4993239;28;20262;-70
2023/11/12 04:56:46;;;;;;;1.60;1.15;;;1.80;99.90;;;;;;4993584;28;20240;-70
2023/11/12 04:59:12;;;;;;;1.48;1.23;;;1.70;99.90;;;;;;4992829;28;20234;-71
2023/11/12 05:01:39;;;;;;;1.30;1.20;;;1.70;99.90;;;;;;4993370;28;20230;-70
2023/11/12 05:04:07;;;;;;;1.75;0.93;;;1.70;99.90;;;;;;4992876;28;20207;-70
2023/11/12 05:06:35;;;;;;;1.45;1.00;;;1.70;99.90;;;;;;4993671;28;20622;-70
2023/11/12 05:09:02;;;;;;;1.50;1.20;;;1.60;99.90;;;;;;4993085;28;20638;-70
2023/11/12 05:11:28;;;;;;;1.30;1.10;;;1.70;99.90;;;;;;4993497;28;20222;-70
2023/11/12 05:13:56;;;;;;;1.42;1.33;;;1.70;99.90;;;;;;4992650;28;20588;-70
2023/11/12 05:16:23;;;;;;;1.63;1.35;;;1.70;99.90;;;;;;4988139;28;20253;-70
2023/11/12 05:18:50;;;;;;;2.60;1.52;;;1.60;99.90;;;;;;4992972;28;20207;-70
2023/11/12 05:21:18;;;;;;;1.17;1.08;;;1.60;99.90;;;;;;4993326;28;20498;-71
2023/11/12 05:23:46;;;;;;;1.15;1.05;;;1.60;99.90;;;;;;4992791;28;20210;-70
2023/11/12 05:26:13;;;;;;;1.10;0.90;;;1.60;99.90;;;;;;4992982;28;20694;-71
2023/11/12 05:28:40;;;;;;;1.75;1.38;;;1.60;99.90;;;;;;4993240;28;20560;-71
2023/11/12 05:31:09;;;;;;;1.92;1.70;;;1.60;99.90;;;;;;4992872;28;20238;-71
2023/11/12 05:33:36;;;;;;;1.73;1.55;;;1.60;99.90;;;;;;4993257;28;20207;-71
2023/11/12 05:36:03;;;;;;;2.20;1.00;;;1.60;99.90;;;;;;4992515;28;20557;-71
2023/11/12 05:38:29;;;;;;;1.40;1.15;;;1.70;99.90;;;;;;4993138;28;20253;-71
2023/11/12 05:40:58;;;;;;;1.63;1.00;;;1.70;99.90;;;;;;4992479;28;20610;-71
2023/11/12 05:43:24;;;;;;;1.90;1.60;;;1.60;99.90;;;;;;4987296;28;20203;-71
2023/11/12 05:45:51;;;;;;;3.40;1.45;;;1.70;99.90;;;;;;4992326;28;20664;-71
2023/11/12 05:48:18;;;;;;;1.30;1.20;;;1.70;99.90;;;;;;4992662;28;20207;-71
2023/11/12 05:50:45;;;;;;;1.17;0.90;;;1.60;99.90;;;;;;4992458;28;20231;-72
2023/11/12 05:53:12;;;;;;;1.52;1.10;;;1.70;99.90;;;;;;4992638;28;20633;-72
2023/11/12 05:55:38;;;;;;;1.25;1.15;;;1.70;99.90;;;;;;4992318;28;20215;-71
2023/11/12 05:58:07;;;;;;;1.35;0.98;;;1.70;99.90;;;;;;4992226;28;20203;-71
2023/11/12 06:00:33;;;;;;;1.30;1.20;;;1.70;99.90;;;;;;4992075;28;20608;-71
2023/11/12 06:03:00;;;;;;;1.90;1.40;;;1.90;99.90;;;;;;4988441;28;20199;-71
2023/11/12 06:05:27;;;;;;;1.73;1.30;;;2.10;99.90;;;;;;4991080;28;20668;-71
2023/11/12 06:07:53;;;;;;;1.63;1.42;;;2.10;99.90;;;;;;4991708;28;20215;-71
2023/11/12 06:10:20;;;;;;;1.58;1.48;;;2.30;99.90;;;;;;4989741;28;20198;-71
2023/11/12 06:12:48;;;;;;;1.70;1.30;;;2.40;99.90;;;;;;4991908;28;20231;-71
2023/11/12 06:15:16;;;;;;;3.78;1.20;;;2.50;99.90;;;;;;4991568;28;20207;-71
2023/11/12 06:17:43;;;;;;;3.65;1.20;;;2.60;99.90;;;;;;4991789;28;20550;-71
2023/11/12 06:20:11;;;;;;;1.83;1.65;;;2.50;99.90;;;;;;4992123;28;20207;-71
2023/11/12 06:22:38;;;;;;;3.00;1.60;;;2.50;99.90;;;;;;4992113;28;20269;-71
2023/11/12 06:25:11;;;;;;;2.20;1.85;;;2.50;99.90;;;;;;4991305;28;20865;-71
2023/11/12 06:27:38;;;;;;;2.22;1.58;;;2.50;99.90;;;;;;4992116;28;20203;-72
2023/11/12 06:30:07;;;;;;;1.40;1.25;;;2.50;99.90;;;;;;4991253;28;20247;-72
2023/11/12 06:32:37;;;;;;;1.85;1.75;;;2.40;99.90;;;;;;4991816;28;20286;-72
2023/11/12 06:35:04;;;;;;;1.70;1.50;;;2.40;99.90;;;;;;4991044;28;20290;-71
2023/11/12 06:37:31;;;;;;;1.60;1.48;;;2.40;99.90;;;;;;4992017;28;20203;-71
2023/11/12 06:39:59;;;;;;;1.38;1.17;;;2.40;99.90;;;;;;4991629;28;20203;-71
2023/11/12 06:42:26;;;;;;;2.83;1.98;;;2.50;99.90;;;;;;4991599;28;20219;-71
2023/11/12 06:44:53;;;;;;;1.80;1.70;;;2.40;99.90;;;;;;4991107;28;20297;-71
2023/11/12 06:47:20;;;;;;;2.28;1.42;;;2.40;99.90;;;;;;4991827;28;20207;-71
2023/11/12 06:49:48;;;;;;;2.47;1.73;;;2.40;99.90;;;;;;4991710;28;20235;-71
2023/11/12 06:52:15;;;;;;;7.22;2.00;;;2.50;99.90;;;;;;4991898;28;20219;-71
2023/11/12 06:54:42;;;;;;;2.20;1.92;;;2.50;99.90;;;;;;4991379;28;20338;-71
2023/11/12 06:57:09;;;;;;;1.80;1.40;;;2.50;99.90;;;;;;4991501;28;20215;-71
2023/11/12 06:59:37;;;;;;;1.42;1.33;;;2.50;99.90;;;;;;4991894;28;20278;-71
2023/11/12 07:02:04;;;;;;;1.25;1.15;;;2.60;99.90;;;;;;4991250;28;20227;-71
2023/11/12 07:04:31;;;;;;;2.13;1.73;;;2.60;99.90;;;;;;4991404;28;20203;-71
2023/11/12 07:06:59;;;;;;;1.40;1.30;;;2.60;99.90;;;;;;4991642;28;20207;-71
2023/11/12 07:09:26;;;;;;;1.88;1.70;;;2.60;99.90;;;;;;4992244;28;20226;-71
2023/11/12 07:11:53;;;;;;;2.05;1.85;;;2.60;99.90;;;;;;4991461;28;20223;-71
2023/11/12 07:14:20;;;;;;;1.63;1.40;;;2.70;99.90;;;;;;4991584;28;20298;-71
2023/11/12 07:16:47;;;;;;;2.00;1.65;;;2.70;99.90;;;;;;4991715;28;20206;-71
2023/11/12 07:19:14;;;;;;;2.47;1.90;;;2.80;99.90;;;;;;4990481;28;20639;-71
2023/11/12 07:21:41;;;;;;;1.92;1.45;;;2.80;99.90;;;;;;4992242;28;20237;-71
2023/11/12 07:24:10;;;;;;;2.13;1.65;;;2.80;99.90;;;;;;4994738;28;20633;-71
2023/11/12 07:26:36;;;;;;;1.88;1.77;;;2.90;99.90;;;;;;4995782;28;20214;-71
2023/11/12 07:29:03;;;;;;;1.55;1.45;;;2.90;99.90;;;;;;4995367;28;20211;-70
2023/11/12 07:31:30;;;;;;;2.30;1.63;;;2.90;99.90;;;;;;4995451;28;20230;-71
2023/11/12 07:33:57;;;;;;;2.47;2.05;;;2.90;99.90;;;;;;4993713;28;20207;-70
2023/11/12 07:36:24;;;;;;;2.78;1.90;;;3.00;99.90;;;;;;4994782;28;20214;-70
2023/11/12 07:38:51;;;;;;;1.52;1.38;;;3.00;99.90;;;;;;4995434;28;20635;-71
2023/11/12 07:41:19;;;;;;;2.28;2.08;;;3.00;99.90;;;;;;4977571;28;20709;-70
2023/11/12 07:43:46;;;;;;;3.75;1.88;;;3.00;99.90;;;;;;4979546;28;20207;-71
2023/11/12 07:46:13;;;;;;;1.80;1.55;;;3.00;99.90;;;;;;4994062;28;20211;-72
2023/11/12 07:48:39;;;;;;;2.72;1.80;;;3.00;99.90;;;;;;4994628;28;20207;-71
2023/11/12 07:51:07;;;;;;;1.90;1.80;;;2.90;99.90;;;;;;4993971;28;20227;-71
2023/11/12 07:53:35;;;;;;;2.67;1.60;;;2.90;99.90;;;;;;4994157;28;20203;-71
2023/11/12 07:56:02;;;;;;;1.83;1.73;;;2.90;99.90;;;;;;4993452;28;20203;-71
2023/11/12 07:58:30;;;;;;;4.65;2.05;;;3.00;99.90;;;;;;4994375;28;20581;-71
2023/11/12 08:00:57;;;;;;;2.78;2.17;;;3.00;99.90;;;;;;4993757;28;20223;-71
2023/11/12 08:03:23;;;;;;;1.50;1.35;;;3.10;99.90;;;;;;4994114;28;20214;-72
2023/11/12 08:05:50;;;;;;;1.80;1.70;;;3.10;99.90;;;;;;4993994;28;20199;-71
2023/11/12 08:08:17;;;;;;;2.92;2.10;;;3.20;99.90;;;;;;4993461;28;20211;-72
2023/11/12 08:10:43;;;;;;;2.17;1.98;;;3.20;99.90;;;;;;4993964;28;20239;-71
2023/11/12 08:13:10;;;;;;;3.10;2.58;;;3.30;99.90;;;;;;4993218;28;20825;-71
2023/11/12 08:15:39;;;;;;;2.67;1.60;;;3.40;99.90;;;;;;4993837;28;20203;-72
2023/11/12 08:18:06;;;;;;;3.42;2.30;;;3.50;99.90;;;;;;4993572;28;20211;-71
2023/11/12 08:20:34;;;;;;;2.15;1.92;;;3.60;99.90;;;;;;4993457;28;20585;-71
2023/11/12 08:23:01;;;;;;;1.92;1.73;;;3.70;99.90;;;;;;4993986;28;20286;-71
2023/11/12 08:25:28;;;;;;;3.13;2.55;;;3.80;99.90;;;;;;4994162;28;20199;-71
2023/11/12 08:27:56;;;;;;;2.25;2.05;;;3.90;99.90;;;;;;4994568;28;20207;-71
2023/11/12 08:30:23;;;;;;;2.95;2.35;;;4.10;99.90;;;;;;4993681;28;20207;-71
2023/11/12 08:32:51;;;;;;;2.25;2.05;;;4.30;99.90;;;;;;4994086;28;20226;-72
2023/11/12 08:35:19;;;;;;;2.72;2.25;;;4.70;99.90;;;;;;4993790;28;20213;-72
2023/11/12 08:37:46;;;;;;;4.65;2.45;;;5.10;99.90;;;;;;4994341;28;20222;-72
2023/11/12 08:40:13;;;;;;;3.53;2.08;;;5.50;99.90;;;;;;4994820;28;20581;-72
2023/11/12 08:42:40;;;;;;;2.55;2.20;;;6.00;99.90;;;;;;4995741;28;20220;-73
2023/11/12 08:45:07;;;;;;;3.25;2.58;;;6.70;99.90;;;;;;4996351;28;20217;-72
2023/11/12 08:47:34;;;;;;;4.72;2.15;;;7.80;99.90;;;;;;4997199;28;20213;-72
2023/11/12 08:50:02;;;;;;;2.00;1.88;;;8.40;99.90;;;;;;4994890;28;20234;-72
2023/11/12 08:52:29;;;;;;;2.00;1.80;;;8.40;99.90;;;;;;4995023;28;20250;-73
2023/11/12 08:54:56;;;;;;;2.00;1.80;;;8.40;99.90;;;;;;4994938;28;20218;-72
2023/11/12 08:57:22;;;;;;;1.40;1.30;;;8.30;99.90;;;;;;4995436;28;20213;-72
2023/11/12 08:59:51;;;;;;;2.35;1.90;;;8.40;99.90;;;;;;4996346;28;20715;-72
2023/11/12 09:02:17;;;;;;;2.22;1.63;;;8.90;99.90;;;;;;4995568;28;20326;-72
2023/11/12 09:04:44;;;;;;;3.10;1.80;;;9.30;99.90;;;;;;4995485;28;20221;-72
2023/11/12 09:07:12;;;;;;;2.20;2.00;;;9.80;99.90;;;;;;4994810;28;20219;-72
2023/11/12 09:09:39;;;;;;;1.77;1.60;;;9.90;99.90;;;;;;4995990;28;20203;-72
2023/11/12 09:12:07;;;;;;;3.58;2.30;;;9.80;99.90;;;;;;4993903;28;20223;-72
2023/11/12 09:14:33;;;;;;;2.40;2.20;;;9.40;99.90;;;;;;4995086;28;20225;-72
2023/11/12 09:17:00;;;;;;;2.72;2.10;;;8.90;99.90;;;;;;4993542;28;20293;-71
2023/11/12 09:19:27;;;;;;;3.05;1.90;;;8.60;99.90;;;;;;4993297;28;20203;-72
2023/11/12 09:21:54;;;;;;;2.10;1.85;;;8.20;99.90;;;;;;4993187;28;20318;-72
2023/11/12 09:24:22;;;;;;;2.75;2.30;;;7.80;99.90;;;;;;4991486;28;20211;-72
2023/11/12 09:26:49;;;;;;;1.65;1.55;;;7.50;99.90;;;;;;4992590;28;20203;-72
2023/11/12 09:29:16;;;;;;;2.40;2.20;;;7.00;99.90;;;;;;4992061;28;20207;-72
2023/11/12 09:31:43;;;;;;;1.80;1.65;;;6.90;99.90;;;;;;4993394;28;20318;-72
2023/11/12 09:34:10;;;;;;;3.40;2.08;;;6.90;99.90;;;;;;4992201;28;20217;-73
2023/11/12 09:36:37;;;;;;;2.10;1.90;;;6.80;99.90;;;;;;4993460;28;20224;-73
2023/11/12 09:39:04;;;;;;;2.25;1.70;;;6.80;99.90;;;;;;4992847;28;20303;-73
2023/11/12 09:41:40;;;;;;;2.80;1.80;;;6.80;99.90;;;;;;4992602;28;20306;-72
2023/11/12 09:44:07;;;;;;;4.03;1.63;;;6.80;99.90;;;;;;4991025;28;20210;-72
2023/11/12 09:46:36;;;;;;;1.95;1.73;;;6.70;99.90;;;;;;4991820;28;20209;-72
2023/11/12 09:49:05;;;;;;;3.65;2.10;;;6.80;99.90;;;;;;4990774;28;20209;-72
2023/11/12 09:51:32;;;;;;;2.60;2.00;;;6.70;99.90;;;;;;4985407;28;20318;-72
2023/11/12 09:53:59;;;;;;;2.13;1.73;;;6.60;99.90;;;;;;4990842;28;20212;-72
2023/11/12 09:56:28;;;;;;;2.10;1.90;;;6.40;99.90;;;;;;4990962;28;20203;-72
2023/11/12 09:59:10;;;;;;;2.47;2.28;;;6.20;99.90;;;;;;4991432;28;20219;-72
2023/11/12 10:01:37;;;;;;;2.50;1.60;;;6.10;99.90;;;;;;4987317;28;20230;-72
2023/11/12 10:04:04;;;;;;;2.38;2.00;;;6.10;99.90;;;;;;4992473;28;20275;-72
2023/11/12 10:06:31;;;;;;;3.10;1.55;;;6.10;99.90;;;;;;4992913;28;20215;-72
2023/11/12 10:09:00;;;;;;;2.47;1.90;;;6.20;99.90;;;;;;4993102;28;20280;-72
2023/11/12 10:11:29;;;;;;;3.03;1.50;;;6.20;99.90;;;;;;4992523;28;20225;-72
2023/11/12 10:13:56;;;;;;;1.98;1.77;;;6.20;99.90;;;;;;4992213;28;20234;-72
2023/11/12 10:16:28;;;;;;;2.42;1.58;;;6.30;99.90;;;;;;4992718;28;20220;-72
2023/11/12 10:19:09;;;;;;;2.15;1.45;;;6.20;99.90;;;;;;4993199;28;20215;-72
2023/11/12 10:21:36;;;;;;;2.70;1.75;;;6.00;99.90;;;;;;4986377;28;20225;-72
2023/11/12 10:24:07;;;;;;;1.95;1.70;;;5.90;99.90;;;;;;4992516;28;20653;-72
2023/11/12 10:26:35;;;;;;;2.05;1.70;;;5.90;99.90;;;;;;4993722;28;20223;-72
2023/11/12 10:29:02;;;;;;;3.20;2.00;;;6.00;99.90;;;;;;4993386;28;20267;-72
2023/11/12 10:31:39;;;;;;;1.67;1.40;;;6.00;99.90;;;;;;4992701;28;20248;-72
2023/11/12 10:34:07;;;;;;;1.80;1.70;;;5.90;99.90;;;;;;4992314;28;20220;-72
2023/11/12 10:36:33;;;;;;;1.73;1.60;;;5.80;99.90;;;;;;4986284;28;20593;-72
2023/11/12 10:39:05;;;;;;;3.78;1.63;;;5.80;99.90;;;;;;4992445;28;20214;-72
2023/11/12 10:41:35;;;;;;;2.30;1.95;;;5.80;99.90;;;;;;4991515;28;20246;-72
2023/11/12 10:44:04;;;;;;;1.77;1.63;;;5.80;99.90;;;;;;4990047;28;20235;-72
2023/11/12 10:46:32;;;;;;;2.25;1.67;;;5.60;99.90;;;;;;4986694;28;20277;-72
2023/11/12 10:49:03;;;;;;;1.65;1.52;;;5.50;99.90;;;;;;4990574;28;20216;-72
2023/11/12 10:51:32;;;;;;;1.65;1.55;;;5.50;99.90;;;;;;4987775;28;20228;-72
2023/11/12 10:54:01;;;;;;;1.60;1.40;;;5.60;99.90;;;;;;4989077;28;20216;-72
2023/11/12 10:56:28;;;;;;;1.63;1.52;;;5.60;99.90;;;;;;4987043;28;20546;-72
2023/11/12 10:58:55;;;;;;;2.05;1.85;;;5.60;99.90;;;;;;4987643;28;20227;-72
2023/11/12 11:01:23;;;;;;;2.28;1.73;;;5.60;99.90;;;;;;4989135;28;20289;-72
2023/11/12 11:03:51;;;;;;;4.13;1.48;;;5.70;99.90;;;;;;4990856;28;20603;-72
2023/11/12 11:06:20;;;;;;;1.95;1.38;;;5.80;99.90;;;;;;4990813;28;20223;-72
2023/11/12 11:08:47;;;;;;;1.30;1.20;;;5.90;99.90;;;;;;4990035;28;20212;-72
2023/11/12 11:11:14;;;;;;;1.95;1.70;;;6.10;99.90;;;;;;4987940;28;20223;-72
2023/11/12 11:13:41;;;;;;;3.15;1.50;;;6.20;99.90;;;;;;4991382;28;20644;-72
2023/11/12 11:16:09;;;;;;;1.65;1.48;;;6.30;99.90;;;;;;4991209;28;20213;-72
2023/11/12 11:18:51;;;;;;;2.25;1.30;;;6.50;99.90;;;;;;4992279;28;20207;-72
2023/11/12 11:21:20;;;;;;;3.22;1.75;;;6.60;99.90;;;;;;4991630;28;20314;-72
2023/11/12 11:23:52;;;;;;;1.70;1.60;;;6.50;99.90;;;;;;4991269;28;20230;-72
2023/11/12 11:26:34;;;;;;;3.45;1.60;;;6.40;99.90;;;;;;4991346;28;20211;-72
2023/11/12 11:29:13;;;;;;;1.45;1.35;;;6.30;99.90;;;;;;4991889;28;20630;-72
2023/11/12 11:31:42;;;;;;;1.52;1.40;;;6.20;99.90;;;;;;4991719;28;20239;-72
2023/11/12 11:34:10;;;;;;;2.13;1.45;;;6.00;99.90;;;;;;4991366;28;20210;-72
2023/11/12 11:36:39;;;;;;;1.90;1.52;;;6.00;99.90;;;;;;4992079;28;20209;-72
2023/11/12 11:39:26;;;;;;;2.17;1.83;;;6.10;99.90;;;;;;4991477;28;20579;-72
2023/11/12 11:42:13;;;;;;;2.95;1.60;;;6.10;99.90;;;;;;4992132;28;20709;-72
2023/11/12 11:44:43;;;;;;;2.08;1.77;;;6.20;99.90;;;;;;4992003;28;20201;-72
2023/11/12 11:47:13;;;;;;;1.90;1.63;;;6.20;99.90;;;;;;4990237;28;20204;-72
2023/11/12 11:49:40;;;;;;;2.45;1.80;;;6.40;99.90;;;;;;4991819;28;20241;-72
2023/11/12 11:52:09;;;;;;;3.83;2.35;;;6.50;99.90;;;;;;4991170;28;20234;-72
2023/11/12 11:54:35;;;;;;;5.65;2.33;;;6.50;99.90;;;;;;4991002;28;20226;-72
2023/11/12 11:57:04;;;;;;;2.20;2.00;;;6.60;99.90;;;;;;4991596;28;20213;-72
2023/11/12 11:59:35;;;;;;;9.63;2.33;;;6.60;99.90;;;;;;4991792;28;20213;-72
2023/11/12 12:02:02;;;;;;;2.30;2.10;;;6.60;99.90;;;;;;4991107;28;20740;-72
2023/11/12 12:04:29;;;;;;;3.35;2.35;;;6.60;99.90;;;;;;4981951;28;20207;-72
2023/11/12 12:06:56;;;;;;;2.25;1.80;;;6.70;99.90;;;;;;4988936;28;20212;-72
2023/11/12 12:09:25;;;;;;;2.15;1.95;;;6.70;99.90;;;;;;4982251;28;20583;-72
2023/11/12 12:11:53;;;;;;;3.90;2.05;;;6.70;99.90;;;;;;4983087;28;20267;-72
2023/11/12 12:14:21;;;;;;;1.92;1.83;;;6.70;99.90;;;;;;4982424;28;20202;-71
2023/11/12 12:16:48;;;;;;;4.30;2.05;;;6.70;99.90;;;;;;4982481;28;20216;-72
2023/11/12 12:19:17;;;;;;;1.92;1.70;;;6.80;99.90;;;;;;4982834;28;20219;-72
2023/11/12 12:21:45;;;;;;;2.55;1.63;;;6.90;99.90;;;;;;4982678;28;20322;-72
2023/11/12 12:24:12;;;;;;;2.45;1.90;;;7.10;99.90;;;;;;4981929;28;20250;-72
2023/11/12 12:26:41;;;;;;;1.75;1.50;;;7.30;99.90;;;;;;4982824;28;20212;-72
2023/11/12 12:29:15;;;;;;;2.05;1.83;;;7.50;99.90;;;;;;4981728;28;20220;-72
2023/11/12 12:31:44;;;;;;;2.15;1.60;;;7.70;99.90;;;;;;4981553;28;20234;-72
2023/11/12 12:34:12;;;;;;;1.98;1.75;;;7.90;99.90;;;;;;4982037;28;20223;-72
2023/11/12 12:36:39;;;;;;;3.10;1.63;;;8.00;99.90;;;;;;4982264;28;20215;-72
2023/11/12 12:39:08;;;;;;;3.85;1.65;;;8.00;99.90;;;;;;4987164;28;20208;-72
2023/11/12 12:41:36;;;;;;;2.70;2.00;;;8.10;99.90;;;;;;4989635;28;20219;-72
2023/11/12 12:44:06;;;;;;;2.33;1.98;;;8.10;99.90;;;;;;4991813;28;20219;-72
2023/11/12 12:46:44;;;;;;;2.50;2.20;;;8.00;99.90;;;;;;4985253;28;20680;-71
2023/11/12 12:49:11;;;;;;;2.17;1.95;;;7.90;99.90;;;;;;4982937;28;20270;-72
2023/11/12 12:51:49;;;;;;;4.00;2.03;;;7.80;99.90;;;;;;4981904;28;20223;-71
2023/11/12 12:54:16;;;;;;;2.10;1.90;;;7.70;99.90;;;;;;4988724;28;20205;-72
2023/11/12 12:56:45;;;;;;;2.10;1.50;;;7.60;99.90;;;;;;4987786;28;20222;-72
2023/11/12 12:59:13;;;;;;;2.60;1.80;;;7.50;99.90;;;;;;4980241;28;20695;-72
2023/11/12 13:01:39;;;;;;;1.45;1.35;;;7.50;99.90;;;;;;4981614;28;20225;-72
2023/11/12 13:04:08;;;;;;;1.98;1.77;;;7.40;99.90;;;;;;4983233;28;20689;-72
2023/11/12 13:06:37;;;;;;;3.20;1.65;;;7.40;99.90;;;;;;4983731;28;20262;-72
2023/11/12 13:09:12;;;;;;;2.38;1.77;;;7.30;99.90;;;;;;4992973;28;20283;-72
2023/11/12 13:11:42;;;;;;;1.80;1.50;;;7.20;99.90;;;;;;4993098;28;20303;-72
2023/11/12 13:14:09;;;;;;;1.50;1.40;;;7.20;99.90;;;;;;4991886;28;20274;-72
2023/11/12 13:16:38;;;;;;;1.98;1.80;;;7.10;99.90;;;;;;4993130;28;20297;-72
2023/11/12 13:19:10;;;;;;;2.47;2.03;;;7.00;99.90;;;;;;4993706;28;20221;-71
2023/11/12 13:21:38;;;;;;;2.58;2.22;;;7.00;99.90;;;;;;4993073;28;20223;-71
2023/11/12 13:24:09;;;;;;;1.65;1.55;;;7.00;99.90;;;;;;4992806;28;20310;-71
2023/11/12 13:26:36;;;;;;;1.67;1.48;;;7.00;99.90;;;;;;4992847;28;20207;-70
2023/11/12 13:29:04;;;;;;;1.80;1.70;;;7.00;99.90;;;;;;4993001;28;20224;-71
2023/11/12 13:31:31;;;;;;;2.35;1.42;;;6.90;99.90;;;;;;4992668;28;20713;-71
2023/11/12 13:33:59;;;;;;;1.70;1.60;;;6.90;99.90;;;;;;4993257;28;20253;-71
2023/11/12 13:36:26;;;;;;;1.77;1.42;;;6.80;99.90;;;;;;4992163;28;20213;-72
2023/11/12 13:38:53;;;;;;;2.10;1.33;;;6.80;99.90;;;;;;4991998;28;20297;-71
2023/11/12 13:41:21;;;;;;;1.75;1.27;;;6.90;99.90;;;;;;4981936;28;20234;-71
2023/11/12 13:43:48;;;;;;;2.03;1.60;;;6.80;99.90;;;;;;4988242;28;20276;-71
2023/11/12 13:46:15;;;;;;;2.10;1.30;;;6.80;99.90;;;;;;4992888;28;20662;-72
2023/11/12 13:48:42;;;;;;;8.23;1.80;;;6.70;99.90;;;;;;4994690;28;20210;-72
2023/11/12 13:51:11;;;;;;;1.20;1.10;;;6.60;99.90;;;;;;4995053;28;20693;-71
2023/11/12 13:53:40;;;;;;;2.70;1.80;;;6.60;99.90;;;;;;4994612;28;20203;-71
2023/11/12 13:56:07;;;;;;;2.13;1.60;;;6.60;99.90;;;;;;4994776;28;20682;-71
2023/11/12 13:58:35;;;;;;;2.80;1.75;;;6.60;99.90;;;;;;4994488;28;20214;-72
2023/11/12 14:01:02;;;;;;;2.20;1.98;;;6.50;99.90;;;;;;4993368;28;20238;-72
2023/11/12 14:03:29;;;;;;;1.90;1.33;;;6.50;99.90;;;;;;4994439;28;20300;-72
2023/11/12 14:05:55;;;;;;;2.22;1.60;;;6.50;99.90;;;;;;4993839;28;20218;-72
2023/11/12 14:08:23;;;;;;;4.55;2.40;;;6.50;99.90;;;;;;4991500;28;20853;-71
2023/11/12 14:10:50;;;;;;;1.65;1.38;;;6.50;99.90;;;;;;4992265;28;20910;-71
2023/11/12 14:13:17;;;;;;;1.73;1.60;;;6.50;99.90;;;;;;4991744;28;20264;-71
2023/11/12 14:15:47;;;;;;;1.63;1.30;;;6.40;99.90;;;;;;4991599;28;20296;-71
2023/11/12 14:18:15;;;;;;;1.83;1.52;;;6.40;99.90;;;;;;4990466;28;20214;-71
2023/11/12 14:20:43;;;;;;;1.83;1.73;;;6.40;99.90;;;;;;4991761;28;20232;-71
2023/11/12 14:23:10;;;;;;;1.63;1.48;;;6.40;99.90;;;;;;4991451;28;20251;-71
2023/11/12 14:25:39;;;;;;;1.95;1.80;;;6.50;99.90;;;;;;4991800;28;20220;-71
2023/11/12 14:28:06;;;;;;;1.40;1.30;;;6.40;99.90;;;;;;4989214;28;20216;-71
2023/11/12 14:30:36;;;;;;;2.13;1.73;;;6.40;99.90;;;;;;4991624;28;20205;-71
2023/11/12 14:33:03;;;;;;;1.60;1.45;;;6.40;99.90;;;;;;4991059;28;20684;-71
2023/11/12 14:35:30;;;;;;;2.00;1.60;;;6.30;99.90;;;;;;4990103;28;20213;-71
2023/11/12 14:37:58;;;;;;;2.28;2.08;;;6.30;99.90;;;;;;4991197;28;20210;-71
2023/11/12 14:40:26;;;;;;;1.05;0.93;;;6.10;99.90;;;;;;4987864;28;20215;-71
2023/11/12 14:42:57;;;;;;;1.30;1.20;;;6.00;99.90;;;;;;4982762;28;20288;-71
2023/11/12 14:45:24;;;;;;;1.40;1.30;;;5.90;99.90;;;;;;4986358;28;20216;-71
2023/11/12 14:47:52;;;;;;;1.20;1.10;;;5.80;99.90;;;;;;4991993;28;20263;-71
2023/11/12 14:50:20;;;;;;;1.58;1.30;;;5.80;99.90;;;;;;4991545;28;20212;-71
2023/11/12 14:52:46;;;;;;;1.35;1.20;;;5.80;99.90;;;;;;4990997;28;20240;-70
2023/11/12 14:55:13;;;;;;;1.10;1.00;;;5.80;99.90;;;;;;4991571;28;20210;-71
2023/11/12 14:57:40;;;;;;;2.85;1.30;;;5.80;99.90;;;;;;4992493;28;20212;-71
2023/11/12 15:00:12;;;;;;;1.20;1.10;;;5.80;99.90;;;;;;4991849;28;20236;-72
2023/11/12 15:02:39;;;;;;;1.42;1.33;;;5.80;99.90;;;;;;4992033;28;20268;-71
2023/11/12 15:05:08;;;;;;;2.38;1.50;;;5.70;99.90;;;;;;4991776;28;20222;-72
2023/11/12 15:07:37;;;;;;;1.80;1.45;;;5.60;99.90;;;;;;4992296;28;20203;-71
2023/11/12 15:10:04;;;;;;;2.08;1.50;;;5.60;99.90;;;;;;4991903;28;20298;-71
2023/11/12 15:12:31;;;;;;;2.00;1.50;;;5.50;99.90;;;;;;4991774;28;20234;-71
2023/11/12 15:14:57;;;;;;;1.48;1.38;;;5.40;99.90;;;;;;4990764;28;20200;-71
2023/11/12 15:17:26;;;;;;;1.35;1.10;;;5.40;99.90;;;;;;4990283;28;20601;-71
2023/11/12 15:19:52;;;;;;;1.13;0.90;;;5.40;99.90;;;;;;4990723;28;20211;-70
2023/11/12 15:22:19;;;;;;;1.10;1.00;;;5.40;99.90;;;;;;4987451;28;20241;-71
2023/11/12 15:24:46;;;;;;;1.10;0.90;;;5.30;99.90;;;;;;4991402;28;20317;-71
2023/11/12 15:27:13;;;;;;;1.52;1.40;;;5.20;99.90;;;;;;4993365;28;20210;-72
2023/11/12 15:29:43;;;;;;;1.90;1.33;;;5.10;99.90;;;;;;4994105;28;20211;-71
2023/11/12 15:32:10;;;;;;;2.28;1.40;;;5.00;99.90;;;;;;4992653;28;20761;-71
2023/11/12 15:34:38;;;;;;;2.08;1.95;;;5.00;99.90;;;;;;4992800;28;20203;-70
2023/11/12 15:37:05;;;;;;;1.65;0.95;;;5.00;99.90;;;;;;4991064;28;20266;-71
2023/11/12 15:39:32;;;;;;;1.25;1.15;;;4.90;99.90;;;;;;4991523;28;20238;-71
2023/11/12 15:41:59;;;;;;;1.38;1.27;;;4.90;99.90;;;;;;4991355;28;20228;-71
2023/11/12 15:44:25;;;;;;;2.25;1.48;;;4.80;99.90;;;;;;4994032;28;20218;-70
2023/11/12 15:46:52;;;;;;;1.45;1.10;;;4.80;99.90;;;;;;4995832;28;20203;-71
2023/11/12 15:49:19;;;;;;;1.00;0.90;;;4.70;99.90;;;;;;4995322;28;20281;-71
2023/11/12 15:51:47;;;;;;;1.75;1.45;;;4.70;99.90;;;;;;4995688;28;20231;-71
2023/11/12 15:54:14;;;;;;;1.30;1.05;;;4.60;99.90;;;;;;4995522;28;20211;-71
2023/11/12 15:56:41;;;;;;;1.20;1.10;;;4.60;99.90;;;;;;4984621;28;20211;-71
2023/11/12 15:59:07;;;;;;;1.23;1.10;;;4.60;99.90;;;;;;4983434;28;20253;-72
2023/11/12 16:01:35;;;;;;;2.78;1.67;;;4.50;99.90;;;;;;4981075;28;20228;-71
2023/11/12 16:04:04;;;;;;;0.88;0.82;;;4.50;99.90;;;;;;4985436;28;20598;-71
2023/11/12 16:06:32;;;;;;;1.30;1.10;;;4.50;99.90;;;;;;4983018;28;20269;-71
2023/11/12 16:09:00;;;;;;;1.38;0.95;;;4.50;99.90;;;;;;4988235;28;20225;-72
2023/11/12 16:11:27;;;;;;;1.20;1.10;;;4.50;99.90;;;;;;4980269;28;20228;-71
2023/11/12 16:13:54;;;;;;;1.55;1.02;;;4.50;99.90;;;;;;4986516;28;20300;-70
2023/11/12 16:16:21;;;;;;;2.15;1.80;;;4.50;99.90;;;;;;4980777;28;20572;-72
2023/11/12 16:18:48;;;;;;;1.90;1.13;;;4.50;99.90;;;;;;4981413;28;20212;-71
2023/11/12 16:21:15;;;;;;;1.58;1.35;;;4.40;99.90;;;;;;4981093;28;20227;-71
2023/11/12 16:23:43;;;;;;;1.35;1.25;;;4.40;99.90;;;;;;4980125;28;20208;-71
2023/11/12 16:26:13;;;;;;;2.08;1.48;;;4.40;99.90;;;;;;4981845;28;20607;-71
2023/11/12 16:28:40;;;;;;;3.55;1.30;;;4.50;99.90;;;;;;4980172;28;20211;-71
2023/11/12 16:31:09;;;;;;;2.83;1.60;;;4.40;99.90;;;;;;4981423;28;20656;-71
2023/11/12 16:33:36;;;;;;;2.20;1.30;;;4.50;99.90;;;;;;4979926;28;20215;-71
2023/11/12 16:36:04;;;;;;;1.38;1.20;;;4.40;99.90;;;;;;4981366;28;20242;-71
2023/11/12 16:38:36;;;;;;;2.80;1.67;;;4.30;99.90;;;;;;4979795;28;20585;-72
2023/11/12 16:41:02;;;;;;;2.10;1.75;;;4.30;99.90;;;;;;4982075;28;20227;-71
2023/11/12 16:43:31;;;;;;;1.73;1.30;;;4.20;99.90;;;;;;4979459;28;20302;-71
2023/11/12 16:45:58;;;;;;;1.27;1.00;;;4.20;99.90;;;;;;4981140;28;20207;-71
2023/11/12 16:48:25;;;;;;;1.90;1.70;;;4.20;99.90;;;;;;4979482;28;20211;-71
2023/11/12 16:50:52;;;;;;;2.20;1.42;;;4.10;99.90;;;;;;4985817;28;20456;-71
2023/11/12 16:53:20;;;;;;;1.85;1.10;;;4.10;99.90;;;;;;4993520;28;20686;-71
2023/11/12 16:55:47;;;;;;;1.65;1.40;;;4.00;99.90;;;;;;4991797;28;20210;-71
2023/11/12 16:58:14;;;;;;;1.33;1.20;;;4.00;99.90;;;;;;4993506;28;20215;-71
2023/11/12 17:00:42;;;;;;;2.03;1.30;;;4.10;99.90;;;;;;4993648;28;20230;-71
2023/11/12 17:03:09;;;;;;;2.15;1.40;;;4.10;99.90;;;;;;4991520;28;20203;-71
2023/11/12 17:05:36;;;;;;;1.30;1.20;;;4.10;99.90;;;;;;4993060;28;20223;-72
2023/11/12 17:08:05;;;;;;;1.45;1.35;;;4.10;99.90;;;;;;4992896;28;20210;-71
2023/11/12 17:10:33;;;;;;;1.40;1.30;;;4.20;99.90;;;;;;4993637;28;20203;-71
2023/11/12 17:13:00;;;;;;;2.83;1.25;;;4.20;99.90;;;;;;4993221;28;20211;-71
2023/11/12 17:15:28;;;;;;;1.27;1.10;;;4.30;99.90;;;;;;4992669;28;20201;-71
2023/11/12 17:17:56;;;;;;;1.42;1.30;;;4.30;99.90;;;;;;4993120;28;20207;-71